createdAt,value
2023-01-09T00:01:34.943Z,100.00
2023-01-09T00:04:01.585Z,100.00
2023-01-09T00:06:28.222Z,100.00
2023-01-09T00:08:54.711Z,100.00
2023-01-09T00:11:21.267Z,100.00
2023-01-09T00:13:47.761Z,100.00
2023-01-09T00:16:14.853Z,100.00
2023-01-09T00:18:41.316Z,100.00
2023-01-09T00:21:09.131Z,100.00
2023-01-09T00:23:36.191Z,100.00
2023-01-09T00:26:08.301Z,100.00
2023-01-09T00:28:35.408Z,100.00
2023-01-09T00:31:03.716Z,100.00
2023-01-09T00:33:33.191Z,100.00
2023-01-09T00:35:59.674Z,99.96
2023-01-09T00:38:26.234Z,100.00
2023-01-09T00:40:54.353Z,99.84
2023-01-09T00:43:23.115Z,99.97
2023-01-09T00:45:50.452Z,99.86
2023-01-09T00:48:26.426Z,99.99
2023-01-09T00:50:56.572Z,100.00
2023-01-09T00:53:26.237Z,99.94
2023-01-09T00:55:53.855Z,99.94
2023-01-09T00:58:20.624Z,100.00
2023-01-09T01:00:47.256Z,100.00
2023-01-09T01:03:13.674Z,99.78
2023-01-09T01:05:58.814Z,99.94
2023-01-09T01:08:25.209Z,100.00
2023-01-09T01:10:51.712Z,100.00
2023-01-09T01:13:18.149Z,99.71
2023-01-09T01:15:46.038Z,100.00
2023-01-09T01:18:13.750Z,100.00
2023-01-09T01:20:42.269Z,99.94
2023-01-09T01:23:09.088Z,100.00
2023-01-09T01:25:39.908Z,100.00
2023-01-09T01:28:06.760Z,100.00
2023-01-09T01:30:34.147Z,100.00
2023-01-09T01:33:00.994Z,100.00
2023-01-09T01:35:27.408Z,100.00
2023-01-09T01:37:53.883Z,99.87
2023-01-09T01:40:20.532Z,100.00
2023-01-09T01:42:49.197Z,100.00
2023-01-09T01:45:29.652Z,99.62
2023-01-09T01:48:16.763Z,100.00
2023-01-09T01:50:55.805Z,100.00
2023-01-09T01:53:34.254Z,100.00
2023-01-09T01:56:11.815Z,99.80
2023-01-09T01:58:44.763Z,100.00
2023-01-09T02:01:11.702Z,100.00
2023-01-09T02:03:41.289Z,100.00
2023-01-09T02:06:09.087Z,100.00
2023-01-09T02:08:36.036Z,100.00
2023-01-09T02:11:04.678Z,100.00
2023-01-09T02:13:34.486Z,100.00
2023-01-09T02:16:19.191Z,100.00
2023-01-09T02:19:11.384Z,100.00
2023-01-09T02:21:50.649Z,100.00
2023-01-09T02:24:49.797Z,100.00
2023-01-09T02:27:35.917Z,100.00
2023-01-09T02:30:19.212Z,100.00
2023-01-09T02:32:58.064Z,100.00
2023-01-09T02:35:40.934Z,100.00
2023-01-09T02:38:16.732Z,100.00
2023-01-09T02:40:50.345Z,100.00
2023-01-09T02:43:16.948Z,100.00
2023-01-09T02:45:43.444Z,100.00
2023-01-09T02:48:11.269Z,100.00
2023-01-09T02:50:43.846Z,100.00
2023-01-09T02:53:28.991Z,100.00
2023-01-09T02:56:42.216Z,100.00
2023-01-09T02:59:45.727Z,100.00
2023-01-09T03:02:15.117Z,100.00
2023-01-09T03:05:46.584Z,100.00
2023-01-09T03:08:20.667Z,100.00
2023-01-09T03:10:50.710Z,100.00
2023-01-09T03:13:20.523Z,100.00
2023-01-09T03:15:50.731Z,100.00
2023-01-09T03:18:21.625Z,100.00
2023-01-09T03:20:48.864Z,100.00
2023-01-09T03:23:15.307Z,100.00
2023-01-09T03:25:41.778Z,100.00
2023-01-09T03:28:17.766Z,100.00
2023-01-09T03:30:44.290Z,100.00
2023-01-09T03:33:10.726Z,100.00
2023-01-09T03:35:37.123Z,100.00
2023-01-09T03:38:03.736Z,100.00
2023-01-09T03:40:30.173Z,100.00
2023-01-09T03:42:56.608Z,100.00
2023-01-09T03:45:23.049Z,100.00
2023-01-09T03:47:51.137Z,100.00
2023-01-09T03:50:18.729Z,100.00
2023-01-09T03:52:45.155Z,100.00
2023-01-09T03:55:11.624Z,100.00
2023-01-09T03:57:38.012Z,100.00
2023-01-09T04:00:05.022Z,100.00
2023-01-09T04:02:31.429Z,100.00
2023-01-09T04:04:57.827Z,100.00
2023-01-09T04:07:24.244Z,100.00
2023-01-09T04:09:50.669Z,100.00
2023-01-09T04:12:17.114Z,100.00
2023-01-09T04:14:43.555Z,100.00
2023-01-09T04:17:10.026Z,100.00
2023-01-09T04:19:36.491Z,100.00
2023-01-09T04:22:02.923Z,100.00
2023-01-09T04:24:29.368Z,100.00
2023-01-09T04:26:56.289Z,100.00
2023-01-09T04:29:22.727Z,100.00
2023-01-09T04:31:49.246Z,100.00
2023-01-09T04:34:15.705Z,100.00
2023-01-09T04:36:43.005Z,100.00
2023-01-09T04:39:09.540Z,100.00
2023-01-09T04:41:52.085Z,100.00
2023-01-09T04:44:20.718Z,100.00
2023-01-09T04:46:47.946Z,100.00
2023-01-09T04:49:14.905Z,100.00
2023-01-09T04:51:41.362Z,100.00
2023-01-09T04:54:07.929Z,100.00
2023-01-09T04:56:34.510Z,100.00
2023-01-09T04:59:01.042Z,100.00
2023-01-09T05:01:27.614Z,100.00
2023-01-09T05:03:54.268Z,100.00
2023-01-09T05:06:20.744Z,100.00
2023-01-09T05:08:47.440Z,100.00
2023-01-09T05:11:13.946Z,100.00
2023-01-09T05:13:40.506Z,100.00
2023-01-09T05:16:07.557Z,100.00
2023-01-09T05:18:34.153Z,100.00
2023-01-09T05:21:00.749Z,100.00
2023-01-09T05:23:27.315Z,100.00
2023-01-09T05:25:53.693Z,100.00
2023-01-09T05:28:20.219Z,100.00
2023-01-09T05:30:47.541Z,100.00
2023-01-09T05:33:14.108Z,100.00
2023-01-09T05:35:40.531Z,100.00
2023-01-09T05:38:06.948Z,100.00
2023-01-09T05:40:40.069Z,100.00
2023-01-09T05:43:06.955Z,100.00
2023-01-09T05:45:33.477Z,100.00
2023-01-09T05:47:59.986Z,100.00
2023-01-09T05:50:26.517Z,100.00
2023-01-09T05:52:52.938Z,100.00
2023-01-09T05:55:19.411Z,100.00
2023-01-09T05:57:45.848Z,100.00
2023-01-09T06:00:12.844Z,100.00
2023-01-09T06:02:39.451Z,100.00
2023-01-09T06:05:06.516Z,100.00
2023-01-09T06:07:36.547Z,100.00
2023-01-09T06:10:03.792Z,100.00
2023-01-09T06:12:30.366Z,100.00
2023-01-09T06:14:56.836Z,100.00
2023-01-09T06:17:23.261Z,100.00
2023-01-09T06:19:51.442Z,100.00
2023-01-09T06:22:17.925Z,100.00
2023-01-09T06:24:44.427Z,100.00
2023-01-09T06:27:12.981Z,100.00
2023-01-09T06:29:40.079Z,100.00
2023-01-09T06:32:06.889Z,100.00
2023-01-09T06:34:33.377Z,100.00
2023-01-09T06:36:59.855Z,100.00
2023-01-09T06:39:26.290Z,100.00
2023-01-09T06:41:52.695Z,100.00
2023-01-09T06:44:19.143Z,100.00
2023-01-09T06:46:45.635Z,100.00
2023-01-09T06:49:12.174Z,100.00
2023-01-09T06:51:38.678Z,100.00
2023-01-09T06:54:05.179Z,100.00
2023-01-09T06:56:31.653Z,100.00
2023-01-09T06:58:58.192Z,100.00
2023-01-09T07:01:24.777Z,100.00
2023-01-09T07:03:51.573Z,100.00
2023-01-09T07:06:20.147Z,100.00
2023-01-09T07:08:47.901Z,100.00
2023-01-09T07:11:14.473Z,100.00
2023-01-09T07:13:41.073Z,100.00
2023-01-09T07:16:08.840Z,100.00
2023-01-09T07:18:35.429Z,100.00
2023-01-09T07:21:01.937Z,100.00
2023-01-09T07:23:28.438Z,100.00
2023-01-09T07:25:55.028Z,100.00
2023-01-09T07:28:21.464Z,100.00
2023-01-09T07:30:47.924Z,100.00
2023-01-09T07:33:14.353Z,100.00
2023-01-09T07:35:40.808Z,100.00
2023-01-09T07:38:07.238Z,100.00
2023-01-09T07:40:33.960Z,100.00
2023-01-09T07:43:00.460Z,100.00
2023-01-09T07:45:26.906Z,100.00
2023-01-09T07:47:53.356Z,100.00
2023-01-09T07:50:19.812Z,100.00
2023-01-09T07:52:46.820Z,100.00
2023-01-09T07:55:15.012Z,100.00
2023-01-09T07:57:42.434Z,100.00
2023-01-09T08:00:11.300Z,100.00
2023-01-09T08:02:37.761Z,100.00
2023-01-09T08:05:04.406Z,100.00
2023-01-09T08:07:30.967Z,100.00
2023-01-09T08:09:57.488Z,100.00
2023-01-09T08:12:23.924Z,100.00
2023-01-09T08:14:51.365Z,100.00
2023-01-09T08:17:18.018Z,100.00
2023-01-09T08:19:44.493Z,100.00
2023-01-09T08:22:10.893Z,100.00
2023-01-09T08:24:37.393Z,100.00
2023-01-09T08:27:03.855Z,100.00
2023-01-09T08:29:30.433Z,100.00
2023-01-09T08:31:57.089Z,100.00
2023-01-09T08:34:23.528Z,100.00
2023-01-09T08:36:50.095Z,100.00
2023-01-09T08:39:16.518Z,100.00
2023-01-09T08:42:01.732Z,100.00
2023-01-09T08:44:46.481Z,100.00
2023-01-09T08:47:18.338Z,100.00
2023-01-09T08:49:44.761Z,100.00
2023-01-09T08:52:11.250Z,100.00
2023-01-09T08:54:39.026Z,100.00
2023-01-09T08:57:06.768Z,100.00
2023-01-09T08:59:33.393Z,100.00
2023-01-09T09:02:00.786Z,100.00
2023-01-09T09:04:27.295Z,100.00
2023-01-09T09:06:53.685Z,100.00
2023-01-09T09:09:20.173Z,100.00
2023-01-09T09:11:46.583Z,100.00
2023-01-09T09:14:31.484Z,100.00
2023-01-09T09:16:57.871Z,100.00
2023-01-09T09:19:24.283Z,100.00
2023-01-09T09:21:50.755Z,100.00
2023-01-09T09:24:17.159Z,100.00
2023-01-09T09:26:44.687Z,100.00
2023-01-09T09:29:11.528Z,100.00
2023-01-09T09:31:38.705Z,100.00
2023-01-09T09:34:06.067Z,100.00
2023-01-09T09:36:32.569Z,100.00
2023-01-09T09:38:59.357Z,100.00
2023-01-09T09:42:19.452Z,100.00
2023-01-09T09:45:07.337Z,100.00
2023-01-09T09:47:50.608Z,100.00
2023-01-09T09:50:26.104Z,100.00
2023-01-09T09:53:02.769Z,100.00
2023-01-09T09:55:39.879Z,100.00
2023-01-09T09:58:21.777Z,100.00
2023-01-09T10:00:51.181Z,100.00
2023-01-09T10:03:50.309Z,100.00
2023-01-09T10:06:31.183Z,100.00
2023-01-09T10:09:25.745Z,100.00
2023-01-09T10:12:07.207Z,100.00
2023-01-09T10:14:34.860Z,100.00
2023-01-09T10:17:18.890Z,100.00
2023-01-09T10:20:10.464Z,100.00
2023-01-09T10:22:52.971Z,100.00
2023-01-09T10:25:34.827Z,100.00
2023-01-09T10:28:01.189Z,100.00
2023-01-09T10:30:37.548Z,100.00
2023-01-09T10:33:13.100Z,100.00
2023-01-09T10:36:13.938Z,100.00
2023-01-09T10:38:43.694Z,100.00
2023-01-09T10:41:24.257Z,100.00
2023-01-09T10:44:02.240Z,100.00
2023-01-09T10:46:37.553Z,100.00
2023-01-09T10:49:12.620Z,100.00
2023-01-09T10:51:50.988Z,100.00
2023-01-09T10:54:22.012Z,100.00
2023-01-09T10:56:55.446Z,100.00
2023-01-09T10:59:23.541Z,100.00
2023-01-09T11:01:50.162Z,100.00
2023-01-09T11:04:37.644Z,100.00
2023-01-09T11:07:16.445Z,100.00
2023-01-09T11:09:56.847Z,100.00
2023-01-09T11:12:26.165Z,100.00
2023-01-09T11:14:52.634Z,100.00
2023-01-09T11:17:21.348Z,100.00
2023-01-09T11:20:13.829Z,100.00
2023-01-09T11:22:48.869Z,100.00
2023-01-09T11:25:18.008Z,100.00
2023-01-09T11:28:03.222Z,100.00
2023-01-09T11:30:31.371Z,100.00
2023-01-09T11:32:59.114Z,100.00
2023-01-09T11:35:35.507Z,100.00
2023-01-09T11:38:08.159Z,100.00
2023-01-09T11:40:44.822Z,100.00
2023-01-09T11:43:19.369Z,100.00
2023-01-09T11:46:00.643Z,100.00
2023-01-09T11:48:31.258Z,100.00
2023-01-09T11:50:59.591Z,100.00
2023-01-09T11:53:27.066Z,100.00
2023-01-09T11:56:01.194Z,100.00
2023-01-09T11:58:34.869Z,100.00
2023-01-09T12:01:22.378Z,100.00
2023-01-09T12:04:10.641Z,100.00
2023-01-09T12:07:06.774Z,100.00
2023-01-09T12:10:12.697Z,100.00
2023-01-09T12:12:57.791Z,100.00
2023-01-09T12:15:39.866Z,100.00
2023-01-09T12:18:23.953Z,100.00
2023-01-09T12:21:15.631Z,100.00
2023-01-09T12:24:18.606Z,100.00
2023-01-09T12:27:08.297Z,100.00
2023-01-09T12:29:34.667Z,100.00
2023-01-09T12:32:36.962Z,100.00
2023-01-09T12:35:32.924Z,100.00
2023-01-09T12:38:08.712Z,99.75
2023-01-09T12:40:53.346Z,99.49
2023-01-09T12:43:28.711Z,99.12
2023-01-09T12:46:13.806Z,99.27
2023-01-09T12:49:15.624Z,99.46
2023-01-09T12:51:57.295Z,99.64
2023-01-09T12:54:37.172Z,99.72
2023-01-09T12:57:10.395Z,100.00
2023-01-09T12:59:41.881Z,100.00
2023-01-09T13:02:17.299Z,100.00
2023-01-09T13:05:03.031Z,100.00
2023-01-09T13:07:47.111Z,100.00
2023-01-09T13:10:33.748Z,100.00
2023-01-09T13:13:07.208Z,100.00
2023-01-09T13:15:40.651Z,100.00
2023-01-09T13:18:35.857Z,100.00
2023-01-09T13:21:03.154Z,100.00
2023-01-09T13:23:41.429Z,100.00
2023-01-09T13:26:15.340Z,100.00
2023-01-09T13:28:47.014Z,100.00
2023-01-09T13:31:22.534Z,100.00
2023-01-09T13:33:56.881Z,100.00
2023-01-09T13:36:30.722Z,100.00
2023-01-09T13:38:59.322Z,99.76
2023-01-09T13:41:45.881Z,99.50
2023-01-09T13:44:18.261Z,98.81
2023-01-09T13:46:51.470Z,98.99
2023-01-09T13:49:52.988Z,98.06
2023-01-09T13:52:31.261Z,97.54
2023-01-09T13:55:00.719Z,97.79
2023-01-09T13:57:30.063Z,97.66
2023-01-09T14:00:15.049Z,97.30
2023-01-09T14:02:42.124Z,96.96
2023-01-09T14:05:10.358Z,97.02
2023-01-09T14:07:38.921Z,97.21
2023-01-09T14:10:21.708Z,97.34
2023-01-09T14:12:49.856Z,97.37
2023-01-09T14:15:41.598Z,97.23
2023-01-09T14:18:16.799Z,97.19
2023-01-09T14:20:55.591Z,97.15
2023-01-09T14:23:42.202Z,97.17
2023-01-09T14:26:25.806Z,96.90
2023-01-09T14:28:52.332Z,97.39
2023-01-09T14:31:31.356Z,96.94
2023-01-09T14:34:36.694Z,97.23
2023-01-09T14:37:03.518Z,97.00
2023-01-09T14:39:33.434Z,97.43
2023-01-09T14:42:09.126Z,97.35
2023-01-09T14:44:48.811Z,96.82
2023-01-09T14:47:21.533Z,96.96
2023-01-09T14:49:56.685Z,97.29
2023-01-09T14:52:40.318Z,96.04
2023-01-09T14:55:20.741Z,95.71
2023-01-09T14:57:52.084Z,95.96
2023-01-09T15:00:19.121Z,95.66
2023-01-09T15:02:47.300Z,95.54
2023-01-09T15:05:22.133Z,95.32
2023-01-09T15:07:54.248Z,95.34
2023-01-09T15:10:30.771Z,95.23
2023-01-09T15:13:00.440Z,94.86
2023-01-09T15:15:27.629Z,95.06
2023-01-09T15:18:00.555Z,94.84
2023-01-09T15:20:30.317Z,94.37
2023-01-09T15:23:00.582Z,94.72
2023-01-09T15:25:39.258Z,94.41
2023-01-09T15:28:27.012Z,94.10
2023-01-09T15:31:18.585Z,94.58
2023-01-09T15:33:47.158Z,94.70
2023-01-09T15:36:18.677Z,94.21
2023-01-09T15:38:46.521Z,94.72
2023-01-09T15:41:38.917Z,94.45
2023-01-09T15:44:12.071Z,94.57
2023-01-09T15:46:39.600Z,94.85
2023-01-09T15:49:08.550Z,95.06
2023-01-09T15:51:35.140Z,94.81
2023-01-09T15:54:01.771Z,95.27
2023-01-09T15:56:33.409Z,95.23
2023-01-09T15:59:01.413Z,95.58
2023-01-09T16:01:38.249Z,95.58
2023-01-09T16:04:16.873Z,95.72
2023-01-09T16:06:49.171Z,96.11
2023-01-09T16:09:18.595Z,96.27
2023-01-09T16:11:55.346Z,96.55
2023-01-09T16:14:38.491Z,96.62
2023-01-09T16:17:13.354Z,96.51
2023-01-09T16:19:59.317Z,96.53
2023-01-09T16:22:33.864Z,96.51
2023-01-09T16:25:20.213Z,96.20
2023-01-09T16:28:20.987Z,96.61
2023-01-09T16:31:18.001Z,96.72
2023-01-09T16:33:49.893Z,96.55
2023-01-09T16:36:21.223Z,96.47
2023-01-09T16:38:48.246Z,96.69
2023-01-09T16:41:40.359Z,96.79
2023-01-09T16:44:09.581Z,97.10
2023-01-09T16:46:39.548Z,97.33
2023-01-09T16:49:23.415Z,97.71
2023-01-09T16:51:51.525Z,97.57
2023-01-09T16:54:18.044Z,98.15
2023-01-09T16:56:48.972Z,98.14
2023-01-09T16:59:20.677Z,98.60
2023-01-09T17:01:48.270Z,98.48
2023-01-09T17:04:17.303Z,98.47
2023-01-09T17:06:44.715Z,98.65
2023-01-09T17:09:17.960Z,98.78
2023-01-09T17:11:44.831Z,98.73
2023-01-09T17:14:12.957Z,98.74
2023-01-09T17:16:43.258Z,98.97
2023-01-09T17:19:19.283Z,99.12
2023-01-09T17:21:46.102Z,99.07
2023-01-09T17:24:31.243Z,99.15
2023-01-09T17:27:17.216Z,99.47
2023-01-09T17:29:44.537Z,99.03
2023-01-09T17:32:15.868Z,99.52
2023-01-09T17:34:43.050Z,99.91
2023-01-09T17:37:15.398Z,99.93
2023-01-09T17:39:42.134Z,100.00
2023-01-09T17:42:08.699Z,100.00
2023-01-09T17:44:35.532Z,100.00
2023-01-09T17:47:02.329Z,100.00
2023-01-09T17:49:28.807Z,100.00
2023-01-09T17:51:55.283Z,100.00
2023-01-09T17:54:21.690Z,100.00
2023-01-09T17:56:50.980Z,100.00
2023-01-09T17:59:18.218Z,100.00
2023-01-09T18:01:45.485Z,100.00
2023-01-09T18:04:12.167Z,100.00
2023-01-09T18:06:38.918Z,100.00
2023-01-09T18:09:06.640Z,100.00
2023-01-09T18:11:33.256Z,100.00
2023-01-09T18:13:59.755Z,100.00
2023-01-09T18:16:28.107Z,100.00
2023-01-09T18:18:57.761Z,100.00
2023-01-09T18:21:27.234Z,100.00
2023-01-09T18:23:54.446Z,100.00
2023-01-09T18:26:22.183Z,100.00
2023-01-09T18:28:50.854Z,100.00
2023-01-09T18:31:22.126Z,100.00
2023-01-09T18:33:52.576Z,100.00
2023-01-09T18:36:22.371Z,100.00
2023-01-09T18:38:53.390Z,100.00
2023-01-09T18:41:21.132Z,100.00
2023-01-09T18:43:52.554Z,100.00
2023-01-09T18:46:23.992Z,100.00
2023-01-09T18:48:55.225Z,100.00
2023-01-09T18:51:22.808Z,100.00
2023-01-09T18:53:50.125Z,100.00
2023-01-09T18:56:17.292Z,100.00
2023-01-09T18:58:43.710Z,100.00
2023-01-09T19:01:10.165Z,100.00
2023-01-09T19:03:36.635Z,100.00
2023-01-09T19:06:04.322Z,100.00
2023-01-09T19:08:33.941Z,100.00
2023-01-09T19:11:00.669Z,100.00
2023-01-09T19:13:32.491Z,100.00
2023-01-09T19:16:00.208Z,100.00
2023-01-09T19:18:27.834Z,100.00
2023-01-09T19:20:55.301Z,100.00
2023-01-09T19:23:24.660Z,100.00
2023-01-09T19:25:53.004Z,100.00
2023-01-09T19:28:20.647Z,100.00
2023-01-09T19:30:47.615Z,100.00
2023-01-09T19:33:14.485Z,100.00
2023-01-09T19:35:40.901Z,100.00
2023-01-09T19:38:07.435Z,100.00
2023-01-09T19:40:33.954Z,100.00
2023-01-09T19:43:00.469Z,100.00
2023-01-09T19:45:27.057Z,100.00
2023-01-09T19:47:53.562Z,100.00
2023-01-09T19:50:21.877Z,100.00
2023-01-09T19:52:48.412Z,100.00
2023-01-09T19:55:15.010Z,100.00
2023-01-09T19:57:42.903Z,100.00
2023-01-09T20:00:14.393Z,100.00
2023-01-09T20:02:43.583Z,100.00
2023-01-09T20:05:10.261Z,100.00
2023-01-09T20:07:36.840Z,100.00
2023-01-09T20:10:03.938Z,100.00
2023-01-09T20:12:32.124Z,100.00
2023-01-09T20:14:58.584Z,100.00
2023-01-09T20:17:24.996Z,100.00
2023-01-09T20:19:51.503Z,100.00
2023-01-09T20:22:17.997Z,100.00
2023-01-09T20:24:44.425Z,100.00
2023-01-09T20:27:11.029Z,100.00
2023-01-09T20:29:37.939Z,100.00
2023-01-09T20:32:06.179Z,100.00
2023-01-09T20:34:32.599Z,100.00
2023-01-09T20:36:59.035Z,100.00
2023-01-09T20:39:25.477Z,100.00
2023-01-09T20:41:51.960Z,100.00
2023-01-09T20:44:18.414Z,100.00
2023-01-09T20:46:47.915Z,100.00
2023-01-09T20:49:18.017Z,100.00
2023-01-09T20:51:47.448Z,100.00
2023-01-09T20:54:15.806Z,100.00
2023-01-09T20:56:42.299Z,99.74
2023-01-09T20:59:16.853Z,99.49
2023-01-09T21:01:43.595Z,99.73
2023-01-09T21:04:10.053Z,100.00
2023-01-09T21:06:36.770Z,99.55
2023-01-09T21:09:04.326Z,100.00
2023-01-09T21:11:31.087Z,99.67
2023-01-09T21:13:57.594Z,100.00
2023-01-09T21:16:24.972Z,100.00
2023-01-09T21:18:53.198Z,100.00
2023-01-09T21:21:22.533Z,100.00
2023-01-09T21:23:54.310Z,100.00
2023-01-09T21:26:22.972Z,100.00
2023-01-09T21:28:51.214Z,100.00
2023-01-09T21:31:21.009Z,100.00
2023-01-09T21:33:48.147Z,100.00
2023-01-09T21:36:15.317Z,100.00
2023-01-09T21:38:41.774Z,100.00
2023-01-09T21:41:26.649Z,100.00
2023-01-09T21:44:11.699Z,100.00
2023-01-09T21:46:53.029Z,99.95
2023-01-09T21:49:20.713Z,99.82
2023-01-09T21:51:47.564Z,99.93
2023-01-09T21:54:14.283Z,99.83
2023-01-09T21:56:40.747Z,100.00
2023-01-09T21:59:07.293Z,99.83
2023-01-09T22:01:33.745Z,100.00
2023-01-09T22:04:00.256Z,100.00
2023-01-09T22:06:28.391Z,99.67
2023-01-09T22:08:55.774Z,99.86
2023-01-09T22:11:22.489Z,99.59
2023-01-09T22:13:49.952Z,99.60
2023-01-09T22:16:17.464Z,99.06
2023-01-09T22:18:44.170Z,99.65
2023-01-09T22:21:11.176Z,99.96
2023-01-09T22:23:37.809Z,99.48
2023-01-09T22:26:11.937Z,99.64
2023-01-09T22:28:38.940Z,99.58
2023-01-09T22:31:16.774Z,99.30
2023-01-09T22:33:43.584Z,99.37
2023-01-09T22:36:11.653Z,99.11
2023-01-09T22:38:38.131Z,99.60
2023-01-09T22:41:04.686Z,99.20
2023-01-09T22:43:31.493Z,99.28
2023-01-09T22:46:02.000Z,99.13
2023-01-09T22:48:31.571Z,98.97
2023-01-09T22:51:12.872Z,99.42
2023-01-09T22:53:39.659Z,99.42
2023-01-09T22:56:10.726Z,99.02
2023-01-09T22:58:37.434Z,98.62
2023-01-09T23:01:05.044Z,98.89
2023-01-09T23:03:31.459Z,98.99
2023-01-09T23:06:10.128Z,98.58
2023-01-09T23:08:37.100Z,98.62
2023-01-09T23:11:06.575Z,99.04
2023-01-09T23:13:33.004Z,98.73
2023-01-09T23:16:00.021Z,98.86
2023-01-09T23:18:26.402Z,99.13
2023-01-09T23:20:58.733Z,98.98
2023-01-09T23:23:27.115Z,98.95
2023-01-09T23:25:58.549Z,98.11
2023-01-09T23:28:26.463Z,98.43
2023-01-09T23:30:53.218Z,98.12
2023-01-09T23:33:21.163Z,98.40
2023-01-09T23:35:47.620Z,97.83
2023-01-09T23:38:14.389Z,97.70
2023-01-09T23:40:41.595Z,98.07
2023-01-09T23:43:10.899Z,98.09
2023-01-09T23:45:39.919Z,97.76
2023-01-09T23:48:08.100Z,97.75
2023-01-09T23:50:35.234Z,97.83
2023-01-09T23:53:02.160Z,97.34
2023-01-09T23:55:29.078Z,97.43
2023-01-09T23:57:55.752Z,97.49
